createdAt,value
2022-10-27T00:01:15.135Z,25.21
2022-10-27T00:03:47.801Z,25.63
2022-10-27T00:06:22.173Z,25.42
2022-10-27T00:08:55.504Z,25.22
2022-10-27T00:11:30.796Z,25.16
2022-10-27T00:14:03.059Z,25.29
2022-10-27T00:16:35.291Z,25.36
2022-10-27T00:19:08.110Z,25.29
2022-10-27T00:21:41.784Z,25.28
2022-10-27T00:24:14.507Z,25.18
2022-10-27T00:26:47.037Z,25.08
2022-10-27T00:29:19.162Z,25.02
2022-10-27T00:31:51.659Z,25.13
2022-10-27T00:34:23.624Z,25.26
2022-10-27T00:36:57.613Z,25.27
2022-10-27T00:39:30.022Z,25.11
2022-10-27T00:42:02.749Z,25.05
2022-10-27T00:44:39.077Z,25.05
2022-10-27T00:47:30.676Z,25.04
2022-10-27T00:50:06.425Z,25.08
2022-10-27T00:52:44.006Z,24.91
2022-10-27T00:55:19.993Z,25.02
2022-10-27T00:57:55.077Z,25.14
2022-10-27T01:00:27.875Z,25.13
2022-10-27T01:03:01.224Z,25.01
2022-10-27T01:05:35.749Z,24.97
2022-10-27T01:08:10.861Z,24.96
2022-10-27T01:10:42.817Z,25.21
2022-10-27T01:13:16.025Z,25.02
2022-10-27T01:15:56.184Z,24.92
2022-10-27T01:18:38.563Z,24.97
2022-10-27T01:21:38.824Z,24.73
2022-10-27T01:24:44.113Z,24.77
2022-10-27T01:27:46.854Z,24.98
2022-10-27T01:30:23.456Z,25.12
2022-10-27T01:33:06.990Z,25.02
2022-10-27T01:35:48.659Z,26.51
2022-10-27T01:38:25.322Z,26.59
2022-10-27T01:41:04.467Z,26.58
2022-10-27T01:43:39.848Z,26.55
2022-10-27T01:46:14.663Z,26.59
2022-10-27T01:48:50.757Z,26.59
2022-10-27T01:51:22.848Z,26.63
2022-10-27T01:53:58.088Z,26.62
2022-10-27T01:56:58.508Z,26.64
2022-10-27T01:59:57.523Z,26.29
2022-10-27T02:02:41.140Z,26.32
2022-10-27T02:05:22.355Z,26.37
2022-10-27T02:08:01.148Z,26.33
2022-10-27T02:10:39.263Z,26.36
2022-10-27T02:13:13.287Z,26.41
2022-10-27T02:15:50.664Z,26.41
2022-10-27T02:18:28.829Z,26.33
2022-10-27T02:21:06.512Z,26.40
2022-10-27T02:23:40.151Z,26.52
2022-10-27T02:26:20.663Z,26.51
2022-10-27T02:28:58.060Z,26.48
2022-10-27T02:31:35.574Z,26.53
2022-10-27T02:34:10.020Z,26.54
2022-10-27T02:36:44.329Z,26.53
2022-10-27T02:39:17.150Z,26.63
2022-10-27T02:41:49.489Z,26.69
2022-10-27T02:44:21.823Z,26.76
2022-10-27T02:46:55.049Z,26.77
2022-10-27T02:49:27.446Z,26.80
2022-10-27T02:52:01.138Z,26.83
2022-10-27T02:54:33.118Z,26.90
2022-10-27T02:57:05.966Z,26.94
2022-10-27T02:59:39.247Z,26.93
2022-10-27T03:02:15.796Z,26.94
2022-10-27T03:04:48.599Z,26.96
2022-10-27T03:07:23.375Z,27.00
2022-10-27T03:09:55.487Z,26.94
2022-10-27T03:12:28.294Z,27.03
2022-10-27T03:15:00.782Z,27.18
2022-10-27T03:17:32.726Z,27.19
2022-10-27T03:20:05.034Z,27.20
2022-10-27T03:22:43.451Z,27.25
2022-10-27T03:25:17.024Z,27.01
2022-10-27T03:27:49.400Z,27.19
2022-10-27T03:30:22.153Z,27.33
2022-10-27T03:32:55.392Z,27.41
2022-10-27T03:35:27.409Z,27.44
2022-10-27T03:38:02.622Z,27.62
2022-10-27T03:40:35.354Z,27.48
2022-10-27T03:43:07.706Z,27.60
2022-10-27T03:45:40.539Z,27.52
2022-10-27T03:48:15.570Z,27.70
2022-10-27T03:50:50.727Z,27.72
2022-10-27T03:53:24.892Z,27.85
2022-10-27T03:55:57.781Z,27.77
2022-10-27T03:58:30.756Z,27.87
2022-10-27T04:01:05.873Z,27.93
2022-10-27T04:03:38.175Z,27.69
2022-10-27T04:06:10.692Z,28.09
2022-10-27T04:08:45.059Z,28.17
2022-10-27T04:11:17.401Z,28.09
2022-10-27T04:13:51.174Z,28.21
2022-10-27T04:16:23.930Z,28.22
2022-10-27T04:21:33.426Z,28.52
2022-10-27T04:24:07.038Z,28.55
2022-10-27T04:26:39.747Z,28.31
2022-10-27T04:29:12.261Z,28.52
2022-10-27T04:31:44.799Z,28.48
2022-10-27T04:34:16.642Z,28.59
2022-10-27T04:36:49.082Z,28.58
2022-10-27T04:39:23.330Z,28.54
2022-10-27T04:41:55.924Z,28.69
2022-10-27T04:44:27.847Z,28.58
2022-10-27T04:46:59.837Z,28.82
2022-10-27T04:49:32.111Z,28.58
2022-10-27T04:52:04.652Z,28.78
2022-10-27T04:54:38.845Z,28.86
2022-10-27T04:57:11.300Z,28.88
2022-10-27T04:59:43.998Z,28.80
2022-10-27T05:02:16.792Z,28.79
2022-10-27T05:04:49.171Z,29.07
2022-10-27T05:07:22.087Z,29.07
2022-10-27T05:09:55.818Z,29.08
2022-10-27T05:12:28.501Z,28.92
2022-10-27T05:15:00.650Z,29.30
2022-10-27T05:17:33.181Z,29.23
2022-10-27T05:20:05.152Z,29.36
2022-10-27T05:22:38.247Z,29.37
2022-10-27T05:25:13.580Z,29.52
2022-10-27T05:27:46.371Z,29.56
2022-10-27T05:30:19.308Z,29.56
2022-10-27T05:32:52.148Z,29.36
2022-10-27T05:35:24.702Z,29.48
2022-10-27T05:37:57.400Z,29.75
2022-10-27T05:40:35.753Z,29.59
2022-10-27T05:43:08.583Z,29.59
2022-10-27T05:45:40.618Z,29.76
2022-10-27T05:48:14.671Z,29.80
2022-10-27T05:50:47.094Z,29.76
2022-10-27T05:53:19.755Z,29.93
2022-10-27T05:55:56.848Z,29.95
2022-10-27T05:58:29.597Z,30.06
2022-10-27T06:01:03.081Z,30.19
2022-10-27T06:03:35.678Z,30.14
2022-10-27T06:06:08.613Z,30.44
2022-10-27T06:08:41.240Z,30.26
2022-10-27T06:11:15.160Z,30.33
2022-10-27T06:13:47.590Z,30.24
2022-10-27T06:16:19.962Z,30.12
2022-10-27T06:18:52.525Z,30.16
2022-10-27T06:21:25.188Z,30.09
2022-10-27T06:23:57.634Z,30.36
2022-10-27T06:26:31.386Z,30.25
2022-10-27T06:29:03.644Z,30.39
2022-10-27T06:31:36.078Z,30.35
2022-10-27T06:34:08.544Z,30.32
2022-10-27T06:36:40.727Z,30.34
2022-10-27T06:39:13.949Z,30.43
2022-10-27T06:41:47.978Z,30.58
2022-10-27T06:44:28.258Z,30.56
2022-10-27T06:47:00.902Z,30.62
2022-10-27T06:49:33.009Z,30.55
2022-10-27T06:52:05.659Z,30.78
2022-10-27T06:54:39.649Z,30.74
2022-10-27T06:57:14.929Z,30.75
2022-10-27T06:59:47.043Z,30.77
2022-10-27T07:02:20.714Z,30.83
2022-10-27T07:04:53.329Z,30.80
2022-10-27T07:07:25.426Z,31.07
2022-10-27T07:09:57.744Z,30.90
2022-10-27T07:12:32.119Z,30.57
2022-10-27T07:15:04.679Z,30.88
2022-10-27T07:17:36.634Z,30.90
2022-10-27T07:20:09.787Z,31.07
2022-10-27T07:22:44.598Z,31.08
2022-10-27T07:25:16.837Z,31.07
2022-10-27T07:27:55.809Z,31.03
2022-10-27T07:30:30.742Z,30.80
2022-10-27T07:33:03.235Z,31.16
2022-10-27T07:35:36.657Z,31.11
2022-10-27T07:38:09.954Z,31.15
2022-10-27T07:40:42.908Z,31.11
2022-10-27T07:43:17.040Z,31.06
2022-10-27T07:45:49.411Z,31.18
2022-10-27T07:48:21.817Z,31.17
2022-10-27T07:50:55.051Z,31.32
2022-10-27T07:53:27.652Z,31.33
2022-10-27T07:56:01.136Z,31.15
2022-10-27T07:58:35.028Z,31.27
2022-10-27T08:01:07.252Z,31.41
2022-10-27T08:03:40.255Z,31.47
2022-10-27T08:06:12.521Z,31.36
2022-10-27T08:08:44.937Z,31.22
2022-10-27T08:11:18.188Z,31.33
2022-10-27T08:13:52.154Z,31.43
2022-10-27T08:16:24.003Z,31.45
2022-10-27T08:18:56.733Z,31.37
2022-10-27T08:21:29.127Z,31.39
2022-10-27T08:24:01.795Z,31.39
2022-10-27T08:26:35.390Z,31.40
2022-10-27T08:29:09.172Z,31.33
2022-10-27T08:31:40.901Z,31.51
2022-10-27T08:34:13.731Z,31.60
2022-10-27T08:36:45.568Z,31.55
2022-10-27T08:39:18.202Z,31.53
2022-10-27T08:42:00.182Z,31.49
2022-10-27T08:44:38.302Z,31.61
2022-10-27T08:47:24.616Z,31.64
2022-10-27T08:50:02.506Z,31.71
2022-10-27T08:52:41.784Z,31.68
2022-10-27T08:55:27.165Z,31.58
2022-10-27T08:58:05.711Z,31.79
2022-10-27T09:00:47.925Z,31.64
2022-10-27T09:03:47.293Z,31.63
2022-10-27T09:06:24.556Z,31.67
2022-10-27T09:09:07.733Z,31.64
2022-10-27T09:11:49.091Z,31.67
2022-10-27T09:14:47.003Z,31.59
2022-10-27T09:17:26.094Z,31.65
2022-10-27T09:20:03.464Z,31.80
2022-10-27T09:22:42.065Z,31.76
2022-10-27T09:25:22.071Z,31.72
2022-10-27T09:27:56.765Z,31.72
2022-10-27T09:30:30.577Z,31.66
2022-10-27T09:33:05.506Z,31.74
2022-10-27T09:35:38.159Z,31.60
2022-10-27T09:38:17.240Z,31.73
2022-10-27T09:40:49.944Z,31.82
2022-10-27T09:43:25.264Z,31.77
2022-10-27T09:46:07.377Z,31.75
2022-10-27T09:48:42.429Z,31.79
2022-10-27T09:51:23.003Z,31.66
2022-10-27T09:53:56.122Z,31.43
2022-10-27T09:56:31.025Z,31.53
2022-10-27T09:59:06.366Z,31.51
2022-10-27T10:01:56.849Z,31.57
2022-10-27T10:04:35.020Z,31.57
2022-10-27T10:07:08.606Z,31.52
2022-10-27T10:09:42.700Z,31.55
2022-10-27T10:12:24.404Z,31.64
2022-10-27T10:15:22.199Z,31.62
2022-10-27T10:18:01.497Z,31.63
2022-10-27T10:20:44.045Z,31.68
2022-10-27T10:23:25.207Z,31.63
2022-10-27T10:26:00.214Z,31.66
2022-10-27T10:28:38.802Z,31.59
2022-10-27T10:31:13.358Z,31.74
2022-10-27T10:33:48.141Z,31.59
2022-10-27T10:36:29.276Z,31.53
2022-10-27T10:39:02.451Z,31.61
2022-10-27T10:42:20.115Z,31.66
2022-10-27T10:45:12.082Z,31.61
2022-10-27T10:47:51.437Z,31.59
2022-10-27T10:50:23.851Z,31.62
2022-10-27T10:53:00.521Z,31.52
2022-10-27T10:55:37.720Z,31.56
2022-10-27T10:58:11.509Z,31.58
2022-10-27T11:00:57.735Z,31.49
2022-10-27T11:03:37.161Z,31.51
2022-10-27T11:06:19.302Z,31.45
2022-10-27T11:09:04.340Z,31.33
2022-10-27T11:11:45.115Z,31.33
2022-10-27T11:14:21.651Z,31.38
2022-10-27T11:16:56.396Z,31.36
2022-10-27T11:19:41.937Z,31.36
2022-10-27T11:29:44.785Z,31.34
2022-10-27T11:32:29.267Z,31.23
2022-10-27T11:35:16.834Z,31.26
2022-10-27T11:38:58.665Z,31.27
2022-10-27T11:41:32.138Z,31.02
2022-10-27T11:44:15.306Z,30.88
2022-10-27T11:46:55.531Z,30.92
2022-10-27T11:49:39.731Z,30.76
2022-10-27T11:52:22.010Z,30.71
2022-10-27T11:54:54.623Z,30.65
2022-10-27T11:57:43.658Z,30.58
2022-10-27T12:12:46.099Z,30.39
2022-10-27T13:06:44.172Z,29.45
2022-10-27T13:22:52.508Z,29.99
2022-10-27T13:52:36.106Z,29.06
2022-10-27T14:08:32.029Z,28.92
2022-10-27T14:12:08.546Z,28.88
2022-10-27T14:14:43.574Z,28.85
2022-10-27T14:18:03.673Z,28.89
2022-10-27T14:25:30.566Z,28.80
2022-10-27T14:29:02.432Z,28.86
2022-10-27T14:40:42.705Z,28.68
2022-10-27T15:02:34.097Z,28.70
2022-10-27T15:24:03.777Z,28.50
2022-10-27T15:26:37.543Z,28.59
2022-10-27T15:29:54.776Z,28.54
2022-10-27T15:41:56.449Z,28.54
2022-10-27T15:44:31.003Z,28.41
2022-10-27T15:47:59.398Z,28.47
2022-10-27T15:59:49.874Z,28.24
2022-10-27T16:20:35.638Z,28.12
2022-10-27T16:32:01.954Z,27.96
2022-10-27T16:39:19.076Z,28.04
2022-10-27T16:42:44.786Z,27.96
2022-10-27T16:55:31.402Z,27.91
2022-10-27T17:02:46.252Z,27.63
2022-10-27T17:18:51.303Z,27.68
2022-10-27T17:31:05.441Z,27.61
2022-10-27T17:42:40.572Z,27.56
2022-10-27T17:54:20.056Z,27.49
2022-10-27T17:56:52.338Z,27.44
2022-10-27T18:00:47.175Z,27.39
2022-10-27T18:17:30.319Z,27.34
2022-10-27T18:29:08.439Z,27.19
2022-10-27T18:31:42.284Z,27.16
2022-10-27T18:43:12.508Z,27.17
2022-10-27T18:45:44.763Z,27.12
2022-10-27T19:05:59.979Z,26.96
2022-10-27T19:08:32.841Z,26.95
2022-10-27T19:12:26.961Z,26.98
2022-10-27T19:24:00.456Z,26.85
2022-10-27T19:44:40.030Z,26.67
2022-10-27T19:47:11.965Z,26.67
2022-10-27T20:08:28.069Z,26.40
2022-10-27T20:11:00.781Z,26.53
2022-10-27T20:14:35.747Z,26.48
2022-10-27T20:26:34.192Z,26.46
2022-10-27T20:29:06.875Z,26.43
2022-10-27T20:45:56.819Z,26.33
2022-10-27T20:48:29.538Z,26.34
2022-10-27T20:52:16.256Z,26.28
2022-10-27T21:04:27.782Z,26.11
2022-10-27T21:20:48.453Z,25.86
2022-10-27T21:32:26.508Z,26.10
2022-10-27T21:34:58.750Z,26.10
2022-10-27T21:38:27.065Z,26.00
2022-10-27T21:50:37.308Z,25.93
2022-10-27T22:21:29.172Z,25.73
2022-10-27T22:47:57.194Z,25.43
2022-10-27T22:55:12.903Z,25.39
2022-10-27T23:07:22.327Z,25.32
2022-10-27T23:09:54.558Z,25.38
2022-10-27T23:35:04.796Z,25.31
2022-10-27T23:42:19.691Z,25.14
2022-10-27T23:59:22.582Z,25.17
